Terminal Aerodrome Forecast
Issued by NWS

Home | Current Version | Previous Version | Text Only | Print | Product List | Glossary On
Versions: 1 2 3 4 5 6 7 8 9 10 11 12 13 14 15 16 17 18 19 20 21 22
000
FTUS41 KBOX 300914 AAB
TAFBED
TAF AMD
KBED 300914Z 3009/0106 00000KT P6SM OVC028
     FM301200 05008KT P6SM OVC035
     FM301600 06010KT P6SM VCSH OVC130
     FM010000 05009KT P6SM -SHRA OVC060
     FM010200 05009KT P6SM -SHRA OVC015=

USA.gov is the U.S. government's official web portal to all federal, state and local government web resources and services.